Time;durP1;ratioP1;P1;durP2;ratioP2;P2;SDS_P1;SDS_P2;PMS_P1;PMS_P2;Temp;Humidity;BMP_temperature;BMP_pressure;BME280_temperature;BME280_humidity;BME280_pressure;Samples;Min_cycle;Max_cycle;Signal;HPM_P1;HPM_P2
2023/02/18 00:03:17;;;;;;;0.00;0.00;;;;;;;-145.06;100.00;53872.13;10412037;28;20080;-82
2023/02/18 00:08:18;;;;;;;0.00;0.00;;;;;;;-145.06;100.00;53851.88;10404293;28;20476;-82
2023/02/18 00:13:18;;;;;;;0.00;0.00;;;;;;;-145.06;100.00;53922.75;10391996;28;20432;-81
2023/02/18 00:18:18;;;;;;;0.10;0.10;;;;;;;-145.06;100.00;53900.50;10386470;28;20384;-81
2023/02/18 00:23:20;;;;;;;0.00;0.00;;;;;;;-145.06;100.00;53843.78;10393396;28;20013;-82
2023/02/18 00:28:20;;;;;;;0.00;0.00;;;;;;;-145.06;100.00;53892.38;10391444;28;20495;-82
2023/02/18 00:33:21;;;;;;;0.00;0.00;;;;;;;-145.06;100.00;53841.75;10398912;28;20020;-82
2023/02/18 00:38:21;;;;;;;0.00;0.00;;;;;;;-145.06;100.00;53864.03;10402580;28;20029;-81
2023/02/18 00:43:21;;;;;;;0.00;0.00;;;;;;;-145.06;100.00;53876.19;10405356;28;20033;-83
2023/02/18 00:48:22;;;;;;;0.00;0.00;;;;;;;-145.06;100.00;53874.16;10417481;28;20031;-81
2023/02/18 00:53:23;;;;;;;0.10;0.10;;;;;;;-145.06;100.00;53892.38;10396765;28;20365;-82
2023/02/18 00:58:24;;;;;;;0.00;0.00;;;;;;;-145.06;100.00;53898.47;10400996;28;20367;-82
2023/02/18 01:03:24;;;;;;;0.00;0.00;;;;;;;-145.06;100.00;53825.56;10396829;28;20383;-83
2023/02/18 01:08:25;;;;;;;0.00;0.00;;;;;;;-145.06;100.00;53882.25;10399695;28;20041;-82
2023/02/18 01:13:26;;;;;;;0.00;0.00;;;;;;;-145.06;100.00;53864.03;10417954;28;20018;-81
2023/02/18 01:18:27;;;;;;;0.00;0.00;;;;;;;-145.06;100.00;53888.34;10411402;28;20107;-82
2023/02/18 01:23:27;;;;;;;0.00;0.00;;;;;;;-145.06;100.00;53914.66;10419977;28;20680;-81
2023/02/18 01:28:27;;;;;;;0.00;0.00;;;;;;;-145.06;100.00;53880.22;10404688;28;20047;-80
2023/02/18 01:33:28;;;;;;;0.00;0.00;;;;;;;-145.06;100.00;53864.03;10404286;28;20029;-80
2023/02/18 01:38:29;;;;;;;0.10;0.10;;;;;;;-145.06;100.00;53932.88;10413180;28;20551;-81
2023/02/18 01:43:30;;;;;;;0.00;0.00;;;;;;;-145.06;100.00;53884.28;10411615;28;20030;-82
2023/02/18 01:48:52;;;;;;;0.00;0.00;;;;;;;-145.06;100.00;53876.19;10393275;28;20033;-81
2023/02/18 01:54:04;;;;;;;0.00;0.00;;;;;;;-145.06;100.00;53829.59;10405559;28;20945;-82
2023/02/18 01:59:15;;;;;;;0.00;0.00;;;;;;;-145.06;100.00;53864.03;10416374;28;20029;-82
2023/02/18 02:04:16;;;;;;;0.00;0.00;;;;;;;-145.06;100.00;53886.31;10398332;28;20029;-83
2023/02/18 02:09:18;;;;;;;0.00;0.00;;;;;;;-145.06;100.00;53882.25;10403844;28;20027;-82
2023/02/18 02:14:28;;;;;;;0.00;0.00;;;;;;;-145.06;100.00;53886.31;10401865;28;20021;-82
2023/02/18 02:19:54;;;;;;;0.00;0.00;;;;;;;-145.06;100.00;53870.09;10404177;28;20021;-81
2023/02/18 02:25:22;;;;;;;0.00;0.00;;;;;;;-145.06;100.00;53876.19;10391477;28;20039;-81
2023/02/18 02:30:55;;;;;;;0.00;0.00;;;;;;;-145.06;100.00;53859.97;10396316;28;20052;-80
2023/02/18 02:35:58;;;;;;;0.00;0.00;;;;;;;-145.06;100.00;53874.16;10399093;28;20140;-81
2023/02/18 02:41:31;;;;;;;0.00;0.00;;;;;;;-145.06;100.00;53880.22;10396919;28;20075;-80
2023/02/18 02:46:39;;;;;;;0.00;0.00;;;;;;;-145.06;100.00;53874.16;10393304;28;20029;-82
2023/02/18 02:51:52;;;;;;;0.00;0.00;;;;;;;-145.06;100.00;53862.00;10395756;28;20020;-82
2023/02/18 02:57:28;;;;;;;0.00;0.00;;;;;;;-145.06;100.00;53868.09;10401678;28;20027;-81
2023/02/18 03:02:48;;;;;;;0.00;0.00;;;;;;;-145.06;100.00;53876.19;10414394;28;20017;-81
2023/02/18 03:08:19;;;;;;;0.00;0.00;;;;;;;-145.06;100.00;53906.56;10411288;28;20026;-81
2023/02/18 03:19:29;;;;;;;0.00;0.00;;;;;;;-145.06;100.00;53872.13;10425676;28;20045;-81
2023/02/18 03:24:38;;;;;;;0.10;0.10;;;;;;;-145.06;100.00;53831.63;10449190;28;20139;-81
2023/02/18 03:29:42;;;;;;;0.00;0.00;;;;;;;-145.06;100.00;53900.50;10452793;28;20102;-81
2023/02/18 03:34:47;;;;;;;0.03;0.03;;;;;;;-145.06;100.00;53904.53;10432440;28;20049;-81
2023/02/18 03:39:51;;;;;;;0.00;0.00;;;;;;;-145.06;100.00;53851.88;10451390;28;20025;-81
2023/02/18 03:44:52;;;;;;;0.08;0.08;;;;;;;-145.06;100.00;53880.22;10454803;28;20021;-81
2023/02/18 03:49:52;;;;;;;0.00;0.00;;;;;;;-145.06;100.00;53898.47;10454400;28;20501;-81
2023/02/18 03:54:52;;;;;;;0.00;0.00;;;;;;;-145.06;100.00;53886.31;10454701;28;20642;-81
2023/02/18 03:59:52;;;;;;;0.00;0.00;;;;;;;-145.06;100.00;53888.34;10451109;28;20025;-81
2023/02/18 04:04:53;;;;;;;0.00;0.00;;;;;;;-145.06;100.00;53845.81;10434134;28;20025;-81
2023/02/18 04:09:53;;;;;;;0.10;0.10;;;;;;;-145.06;100.00;53886.31;10451828;28;20040;-81
2023/02/18 04:14:53;;;;;;;0.00;0.00;;;;;;;-145.06;100.00;53872.13;10453436;28;20263;-81
2023/02/18 04:19:54;;;;;;;0.00;0.00;;;;;;;-145.06;100.00;53859.97;10453277;28;20021;-81
2023/02/18 04:24:54;;;;;;;0.00;0.00;;;;;;;-145.06;100.00;53827.59;10462684;28;20159;-81
2023/02/18 04:29:54;;;;;;;0.00;0.00;;;;;;;-145.06;100.00;53843.78;10446143;28;20052;-81
2023/02/18 04:34:55;;;;;;;0.00;0.00;;;;;;;-145.06;100.00;53864.03;10463276;28;20017;-80
2023/02/18 04:39:55;;;;;;;0.00;0.00;;;;;;;-145.06;100.00;53837.72;10441032;28;20267;-81
2023/02/18 04:44:55;;;;;;;0.00;0.00;;;;;;;-145.06;100.00;53862.00;10456165;28;20100;-80
2023/02/18 04:49:55;;;;;;;0.00;0.00;;;;;;;-145.06;100.00;53864.03;10462218;28;20021;-80
2023/02/18 04:54:56;;;;;;;0.00;0.00;;;;;;;-145.06;100.00;53849.84;10461374;28;20027;-80
2023/02/18 04:59:56;;;;;;;0.00;0.00;;;;;;;-145.06;100.00;53876.19;10438863;28;20108;-80
2023/02/18 05:04:56;;;;;;;0.00;0.00;;;;;;;-145.06;100.00;53874.16;10459597;28;20042;-80
2023/02/18 05:09:57;;;;;;;0.00;0.00;;;;;;;-145.06;100.00;53862.00;10457948;28;20046;-82
2023/02/18 05:14:57;;;;;;;0.00;0.00;;;;;;;-145.06;100.00;53916.69;10457998;28;20029;-82
2023/02/18 05:19:57;;;;;;;0.00;0.00;;;;;;;-145.06;100.00;53847.84;10458232;28;20487;-81
2023/02/18 05:24:57;;;;;;;0.00;0.00;;;;;;;-145.06;100.00;53876.19;10439219;28;20043;-82
2023/02/18 05:29:58;;;;;;;0.00;0.00;;;;;;;-145.06;100.00;53839.72;10458191;28;20052;-81
2023/02/18 05:34:58;;;;;;;0.00;0.00;;;;;;;-145.06;100.00;53864.03;10434310;28;20533;-84
2023/02/18 05:39:58;;;;;;;0.00;0.00;;;;;;;-145.06;100.00;53908.59;10454102;28;20107;-80
2023/02/18 05:44:59;;;;;;;0.00;0.00;;;;;;;-145.06;100.00;53874.16;10440997;28;20020;-83
2023/02/18 05:49:59;;;;;;;0.00;0.00;;;;;;;-145.06;100.00;53936.94;10452727;28;20788;-81
2023/02/18 05:54:59;;;;;;;0.00;0.00;;;;;;;-145.06;100.00;53868.09;10455606;28;20406;-81
2023/02/18 05:59:59;;;;;;;0.00;0.00;;;;;;;-145.06;100.00;53896.44;10445487;28;20017;-79
2023/02/18 06:05:00;;;;;;;0.10;0.10;;;;;;;-145.06;100.00;53880.22;10438356;28;20024;-82
2023/02/18 06:10:00;;;;;;;0.00;0.00;;;;;;;-145.06;100.00;53870.09;10453116;28;20024;-80
2023/02/18 06:15:00;;;;;;;0.00;0.00;;;;;;;-145.06;100.00;53896.44;10438147;28;20342;-80
2023/02/18 06:20:01;;;;;;;0.00;0.00;;;;;;;-145.06;100.00;53878.22;10435242;28;20025;-82
2023/02/18 06:25:02;;;;;;;0.00;0.00;;;;;;;-145.06;100.00;53892.38;10455089;28;20036;-82
2023/02/18 06:30:03;;;;;;;0.00;0.00;;;;;;;-145.06;100.00;53884.28;10453196;28;20408;-82
2023/02/18 06:35:03;;;;;;;0.00;0.00;;;;;;;-145.06;100.00;53908.59;10455778;28;20036;-82
2023/02/18 06:40:05;;;;;;;0.00;0.00;;;;;;;-145.06;100.00;53888.34;10453792;28;20059;-80
2023/02/18 06:45:05;;;;;;;0.00;0.00;;;;;;;-145.06;100.00;53882.25;10455256;28;20091;-82
2023/02/18 06:50:06;;;;;;;0.00;0.00;;;;;;;-145.06;100.00;53886.31;10456520;28;20028;-81
2023/02/18 06:55:10;;;;;;;0.00;0.00;;;;;;;-145.06;100.00;53912.63;10443223;28;20108;-80
2023/02/18 07:00:11;;;;;;;0.00;0.00;;;;;;;-145.06;100.00;53900.50;10436065;28;20031;-80
2023/02/18 07:05:11;;;;;;;0.00;0.00;;;;;;;-145.06;100.00;53922.75;10448457;28;20631;-81
2023/02/18 07:10:12;;;;;;;0.00;0.00;;;;;;;-145.06;100.00;53904.53;10435195;28;20029;-80
2023/02/18 07:15:12;;;;;;;0.00;0.00;;;;;;;-145.06;100.00;53920.75;10436377;28;20028;-81
2023/02/18 07:20:13;;;;;;;0.00;0.00;;;;;;;-145.06;100.00;53910.63;10453560;28;20025;-82
2023/02/18 07:25:13;;;;;;;0.00;0.00;;;;;;;-145.06;100.00;53924.78;10451121;28;20025;-82
2023/02/18 07:30:14;;;;;;;0.00;0.00;;;;;;;-145.06;100.00;53862.00;10433147;28;20502;-82
2023/02/18 07:35:16;;;;;;;0.00;0.00;;;;;;;-145.06;100.00;53888.34;10448695;28;20013;-80
2023/02/18 07:40:19;;;;;;;0.00;0.00;;;;;;;-145.06;100.00;53886.31;10451280;28;20087;-82
2023/02/18 07:45:19;;;;;;;0.00;0.00;;;;;;;-145.06;100.00;53835.69;10454741;28;20029;-82
2023/02/18 07:50:20;;;;;;;0.00;0.00;;;;;;;-145.06;100.00;53920.75;10433976;28;20021;-81
2023/02/18 07:55:20;;;;;;;0.10;0.10;;;;;;;-145.06;100.00;53855.94;10457204;28;20029;-80
2023/02/18 08:00:20;;;;;;;0.00;0.00;;;;;;;-145.06;100.00;53876.19;10459464;28;20029;-81
2023/02/18 08:05:21;;;;;;;0.00;0.00;;;;;;;-145.06;100.00;53864.03;10460350;28;20100;-82
2023/02/18 08:10:21;;;;;;;0.00;0.00;;;;;;;-145.06;100.00;53878.22;10462036;28;20369;-81
2023/02/18 08:15:21;;;;;;;0.00;0.00;;;;;;;-145.06;100.00;53872.13;10443944;28;20102;-82
2023/02/18 08:20:22;;;;;;;0.00;0.00;;;;;;;-145.06;100.00;53884.28;10458611;28;20021;-82
2023/02/18 08:25:22;;;;;;;0.00;0.00;;;;;;;-145.06;100.00;53918.72;10443186;28;20040;-81
2023/02/18 08:30:22;;;;;;;0.00;0.00;;;;;;;-145.06;100.00;53870.09;10458317;28;20279;-82
2023/02/18 08:35:23;;;;;;;0.00;0.00;;;;;;;-145.06;100.00;53855.94;10440945;28;20104;-81
2023/02/18 08:40:23;;;;;;;0.00;0.00;;;;;;;-145.06;100.00;53890.38;10443698;28;20092;-82
2023/02/18 08:45:23;;;;;;;0.00;0.00;;;;;;;-145.06;100.00;53898.47;10458888;28;20556;-82
2023/02/18 08:50:25;;;;;;;0.10;0.10;;;;;;;-145.06;100.00;53868.09;10442583;28;20039;-82
2023/02/18 08:55:26;;;;;;;0.00;0.00;;;;;;;-145.06;100.00;53904.53;10440869;28;20422;-82
2023/02/18 09:00:26;;;;;;;0.00;0.00;;;;;;;-145.06;100.00;53902.50;10440189;28;20020;-82
2023/02/18 09:05:28;;;;;;;0.00;0.00;;;;;;;-145.06;100.00;53884.28;10456020;28;20116;-82
2023/02/18 09:10:28;;;;;;;0.00;0.00;;;;;;;-145.06;100.00;53839.72;10437820;28;20464;-82
2023/02/18 09:15:31;;;;;;;0.00;0.00;;;;;;;-145.06;100.00;53827.59;10469507;22;20048;-82
2023/02/18 09:20:31;;;;;;;0.00;0.00;;;;;;;-145.06;100.00;53884.28;10458419;28;20053;-81
2023/02/18 09:25:31;;;;;;;0.00;0.00;;;;;;;-145.06;100.00;53880.22;10419037;28;20474;-81
2023/02/18 09:30:31;;;;;;;0.00;0.00;;;;;;;-145.06;100.00;53839.72;10436088;28;20047;-80
2023/02/18 09:35:32;;;;;;;0.00;0.00;;;;;;;-145.06;100.00;53874.16;10416154;28;20028;-82
2023/02/18 09:40:36;;;;;;;0.00;0.00;;;;;;;-145.06;100.00;53957.19;10447766;28;20033;-81
2023/02/18 09:45:37;;;;;;;0.00;0.00;;;;;;;-145.06;100.00;53864.03;10451631;28;20021;-83
2023/02/18 09:50:37;;;;;;;0.00;0.00;;;;;;;-145.06;100.00;53845.81;10447688;28;20029;-80
2023/02/18 09:55:40;;;;;;;0.00;0.00;;;;;;;-145.06;100.00;53888.34;10409865;28;20466;-83
2023/02/18 10:00:49;;;;;;;0.05;0.05;;;;;;;-145.06;100.00;53876.19;10428153;28;20280;-82
2023/02/18 10:05:58;;;;;;;0.00;0.00;;;;;;;-145.06;100.00;53880.22;10438067;28;20022;-82
2023/02/18 10:10:58;;;;;;;0.00;0.00;;;;;;;-145.06;100.00;53868.09;10413746;28;20038;-81
2023/02/18 10:15:59;;;;;;;0.00;0.00;;;;;;;-145.06;100.00;53904.53;10439510;28;20036;-82
2023/02/18 10:21:12;;;;;;;0.00;0.00;;;;;;;-145.06;100.00;53851.88;10432317;28;20035;-82
2023/02/18 10:26:15;;;;;;;0.00;0.00;;;;;;;-145.06;100.00;53896.44;10410030;28;20025;-81
2023/02/18 10:31:24;;;;;;;0.00;0.00;;;;;;;-145.06;100.00;53868.09;10410716;28;20033;-83
2023/02/18 10:36:26;;;;;;;0.00;0.00;;;;;;;-145.06;100.00;53900.50;10420332;28;20029;-82
2023/02/18 10:41:31;;;;;;;0.10;0.10;;;;;;;-145.06;100.00;53894.41;10409545;28;20025;-82
2023/02/18 10:46:41;;;;;;;0.00;0.00;;;;;;;-145.06;100.00;53910.63;10418141;28;20036;-81
2023/02/18 10:51:49;;;;;;;0.10;0.10;;;;;;;-145.06;100.00;53878.22;10429708;28;20021;-81
2023/02/18 10:56:51;;;;;;;0.10;0.10;;;;;;;-145.06;100.00;53876.19;10408680;28;20479;-81
2023/02/18 11:02:16;;;;;;;0.00;0.00;;;;;;;-145.06;100.00;53902.50;10426438;28;20021;-81
2023/02/18 11:07:28;;;;;;;0.10;0.10;;;;;;;-145.06;100.00;53866.06;10418443;28;20037;-82
2023/02/18 11:12:49;;;;;;;0.00;0.00;;;;;;;-145.06;100.00;53876.19;10412849;28;20032;-82
2023/02/18 11:17:53;;;;;;;0.00;0.00;;;;;;;-145.06;100.00;53900.50;10428917;28;20163;-82
2023/02/18 11:23:17;;;;;;;0.00;0.00;;;;;;;-145.06;100.00;53922.75;10428161;28;20479;-82
2023/02/18 11:28:17;;;;;;;0.00;0.00;;;;;;;-145.06;100.00;53859.97;10418522;28;20092;-81
2023/02/18 11:33:19;;;;;;;0.00;0.00;;;;;;;-145.06;100.00;53849.84;10420280;28;20032;-83
2023/02/18 11:38:52;;;;;;;0.10;0.10;;;;;;;-145.06;100.00;53864.03;10420655;28;20040;-82
2023/02/18 11:43:53;;;;;;;0.10;0.10;;;;;;;-145.06;100.00;53880.22;10412908;28;20043;-82
2023/02/18 11:48:54;;;;;;;0.10;0.10;;;;;;;-145.06;100.00;53864.03;10430371;28;20068;-82
2023/02/18 11:54:20;;;;;;;0.00;0.00;;;;;;;-145.06;100.00;53843.78;10415396;28;20024;-81
2023/02/18 11:59:22;;;;;;;0.10;0.10;;;;;;;-145.06;100.00;53904.53;10418172;28;20014;-82
2023/02/18 12:04:36;;;;;;;0.00;0.00;;;;;;;-145.06;100.00;53878.22;10438341;28;20100;-83
2023/02/18 12:09:47;;;;;;;0.10;0.10;;;;;;;-145.06;100.00;53892.38;10430816;28;20111;-82
2023/02/18 12:14:48;;;;;;;0.00;0.00;;;;;;;-145.06;100.00;53876.19;10428253;28;20025;-82
2023/02/18 12:20:09;;;;;;;0.05;0.05;;;;;;;-145.06;100.00;53878.22;10428414;28;20551;-81
2023/02/18 12:25:31;;;;;;;0.10;0.10;;;;;;;-145.06;100.00;53890.38;10404721;28;20024;-82
2023/02/18 12:30:41;;;;;;;0.10;0.10;;;;;;;-145.06;100.00;53888.34;10413932;28;20025;-83
2023/02/18 12:35:56;;;;;;;0.10;0.10;;;;;;;-145.06;100.00;53870.09;10432564;28;20035;-83
2023/02/18 12:41:06;;;;;;;0.10;0.10;;;;;;;-145.06;100.00;53896.44;10422379;28;20021;-83
2023/02/18 12:46:20;;;;;;;0.03;0.03;;;;;;;-145.06;100.00;53878.22;10424326;28;20052;-83
2023/02/18 12:51:28;;;;;;;0.08;0.08;;;;;;;-145.06;100.00;53864.03;10420554;28;20365;-84
2023/02/18 12:56:46;;;;;;;0.10;0.10;;;;;;;-145.06;100.00;53855.94;10415144;28;20037;-82
2023/02/18 13:02:06;;;;;;;0.00;0.00;;;;;;;-145.06;100.00;53880.22;10430998;28;20021;-83
2023/02/18 13:07:42;;;;;;;0.10;0.10;;;;;;;-145.06;100.00;53910.63;10422707;28;20029;-82
2023/02/18 13:12:52;;;;;;;0.10;0.10;;;;;;;-145.06;100.00;53874.16;10397652;28;20020;-82
2023/02/18 13:17:57;;;;;;;0.10;0.10;;;;;;;-145.06;100.00;53888.34;10412845;28;20021;-83
2023/02/18 13:22:58;;;;;;;0.10;0.10;;;;;;;-145.06;100.00;53892.38;10417809;28;20008;-83
2023/02/18 13:28:08;;;;;;;0.10;0.10;;;;;;;-145.06;100.00;53866.06;10441035;28;20116;-83
2023/02/18 13:33:18;;;;;;;0.10;0.10;;;;;;;-145.06;100.00;53884.28;10428118;28;20040;-83
2023/02/18 13:38:47;;;;;;;0.10;0.10;;;;;;;-145.06;100.00;53876.19;10426029;28;20052;-83
2023/02/18 13:43:47;;;;;;;0.10;0.10;;;;;;;-145.06;100.00;53855.94;10446416;28;20017;-82
2023/02/18 13:49:02;;;;;;;0.00;0.00;;;;;;;-145.06;100.00;53880.22;10449855;28;20121;-83
2023/02/18 13:54:12;;;;;;;0.00;0.00;;;;;;;-145.06;100.00;53862.00;10415284;28;20024;-83
2023/02/18 13:59:21;;;;;;;0.00;0.00;;;;;;;-145.06;100.00;53872.13;10434590;28;20025;-81
2023/02/18 14:04:40;;;;;;;0.10;0.10;;;;;;;-145.06;100.00;53888.34;10429189;28;20031;-83
2023/02/18 14:09:42;;;;;;;0.10;0.10;;;;;;;-145.06;100.00;53862.00;10422433;28;20380;-83
2023/02/18 14:14:43;;;;;;;0.10;0.10;;;;;;;-145.06;100.00;53872.13;10419936;28;20033;-83
2023/02/18 14:20:00;;;;;;;0.10;0.10;;;;;;;-145.06;100.00;53855.94;10414338;28;20476;-82
2023/02/18 14:25:09;;;;;;;0.10;0.10;;;;;;;-145.06;100.00;53892.38;10423442;28;20045;-83
2023/02/18 14:30:27;;;;;;;0.10;0.10;;;;;;;-145.06;100.00;53896.44;10438059;28;20090;-83
2023/02/18 14:35:37;;;;;;;0.00;0.00;;;;;;;-145.06;100.00;53945.03;10427221;28;20479;-83
2023/02/18 14:40:52;;;;;;;0.00;0.00;;;;;;;-145.06;100.00;53896.44;10427381;28;20017;-83
2023/02/18 14:46:24;;;;;;;0.00;0.00;;;;;;;-145.06;100.00;53902.50;10416452;28;20013;-83
2023/02/18 14:51:28;;;;;;;0.00;0.00;;;;;;;-145.06;100.00;53892.38;10414488;28;20021;-84
2023/02/18 14:56:28;;;;;;;0.00;0.00;;;;;;;-145.06;100.00;53886.31;10421580;28;20082;-83
2023/02/18 15:01:34;;;;;;;0.00;0.00;;;;;;;-145.06;100.00;53884.28;10416408;28;20025;-83
2023/02/18 15:06:37;;;;;;;0.00;0.00;;;;;;;-145.06;100.00;53900.50;10444418;28;20305;-83
2023/02/18 15:11:48;;;;;;;0.00;0.00;;;;;;;-145.06;100.00;53892.38;10423193;28;20036;-83
2023/02/18 15:16:49;;;;;;;0.10;0.10;;;;;;;-145.06;100.00;53872.13;10418864;23;20082;-84
2023/02/18 15:21:52;;;;;;;0.00;0.00;;;;;;;-145.06;100.00;53876.19;10366196;28;20448;-84
2023/02/18 15:26:57;;;;;;;0.00;0.00;;;;;;;-145.06;100.00;53912.63;10367476;28;20046;-84
2023/02/18 15:31:59;;;;;;;0.00;0.00;;;;;;;-145.06;100.00;53855.94;10369555;28;20014;-84
2023/02/18 15:37:01;;;;;;;0.00;0.00;;;;;;;-145.06;100.00;53886.31;10353560;28;20547;-84
2023/02/18 15:42:24;;;;;;;0.00;0.00;;;;;;;-145.06;100.00;53910.63;10371814;28;20447;-84
2023/02/18 15:47:25;;;;;;;0.00;0.00;;;;;;;-145.06;100.00;53884.28;10359149;28;20476;-84
2023/02/18 15:52:30;;;;;;;0.00;0.00;;;;;;;-145.06;100.00;53898.47;10364896;28;20025;-84
2023/02/18 15:57:32;;;;;;;0.00;0.00;;;;;;;-145.06;100.00;53890.38;10364842;28;20107;-84
2023/02/18 16:02:33;;;;;;;0.00;0.00;;;;;;;-145.06;100.00;53894.41;10375826;28;20042;-84
2023/02/18 16:07:49;;;;;;;0.00;0.00;;;;;;;-145.06;100.00;53890.38;10369316;28;20033;-84
2023/02/18 16:12:53;;;;;;;0.00;0.00;;;;;;;-145.06;100.00;53874.16;10370688;28;20018;-84
2023/02/18 16:17:54;;;;;;;0.10;0.10;;;;;;;-145.06;100.00;53884.28;10365428;28;20026;-84
2023/02/18 16:23:01;;;;;;;0.00;0.00;;;;;;;-145.06;100.00;53916.69;10359579;28;20022;-84
2023/02/18 16:28:01;;;;;;;0.00;0.00;;;;;;;-145.06;100.00;53857.97;10375463;28;20022;-84
2023/02/18 16:33:02;;;;;;;0.00;0.00;;;;;;;-145.06;100.00;53906.56;10363922;28;20022;-84
2023/02/18 16:38:03;;;;;;;0.00;0.00;;;;;;;-145.06;100.00;53900.50;10352097;28;20109;-85
2023/02/18 16:43:10;;;;;;;0.00;0.00;;;;;;;-145.06;100.00;53872.13;10361443;28;20093;-84
2023/02/18 16:48:20;;;;;;;0.00;0.00;;;;;;;-145.06;100.00;53928.84;10369619;28;20037;-84
2023/02/18 16:53:20;;;;;;;0.00;0.00;;;;;;;-145.06;100.00;53894.41;10356807;28;20034;-85
2023/02/18 16:58:21;;;;;;;0.00;0.00;;;;;;;-145.06;100.00;53908.59;10372453;28;20026;-84
2023/02/18 17:03:21;;;;;;;0.00;0.00;;;;;;;-145.06;100.00;53888.34;10358379;28;20497;-84
2023/02/18 17:08:23;;;;;;;0.00;0.00;;;;;;;-145.06;100.00;53904.53;10390759;28;20043;-84
2023/02/18 17:13:28;;;;;;;0.00;0.00;;;;;;;-145.06;100.00;53894.41;10354335;28;20026;-84
2023/02/18 17:18:29;;;;;;;0.03;0.03;;;;;;;-145.06;100.00;53872.13;10357384;28;20026;-84
2023/02/18 17:23:30;;;;;;;0.00;0.00;;;;;;;-145.06;100.00;53864.03;10362206;28;20028;-84
2023/02/18 17:28:30;;;;;;;0.00;0.00;;;;;;;-145.06;100.00;53916.69;10359536;28;20024;-83
2023/02/18 17:33:30;;;;;;;0.00;0.00;;;;;;;-145.06;100.00;53912.63;10366309;28;20038;-83
2023/02/18 17:38:31;;;;;;;0.00;0.00;;;;;;;-145.06;100.00;53902.50;10367565;28;20335;-84
2023/02/18 17:43:32;;;;;;;0.00;0.00;;;;;;;-145.06;100.00;53916.69;10368627;28;20806;-84
2023/02/18 17:48:32;;;;;;;0.00;0.00;;;;;;;-145.06;100.00;53845.81;10368423;28;20025;-83
2023/02/18 17:53:34;;;;;;;0.00;0.00;;;;;;;-145.06;100.00;53880.22;10348196;28;20014;-83
2023/02/18 17:58:34;;;;;;;0.00;0.00;;;;;;;-145.06;100.00;53904.53;10357116;28;20028;-83
2023/02/18 18:03:34;;;;;;;0.00;0.00;;;;;;;-145.06;100.00;53859.97;10358959;28;20026;-83
2023/02/18 18:08:34;;;;;;;0.00;0.00;;;;;;;-145.06;100.00;53924.78;10363042;28;20485;-84
2023/02/18 18:13:35;;;;;;;0.00;0.00;;;;;;;-145.06;100.00;53898.47;10351308;28;20629;-86
2023/02/18 18:18:35;;;;;;;0.00;0.00;;;;;;;-145.06;100.00;53900.50;10361264;28;20030;-85
2023/02/18 18:23:36;;;;;;;0.00;0.00;;;;;;;-145.06;100.00;53906.56;10375156;28;20370;-84
2023/02/18 18:28:36;;;;;;;0.00;0.00;;;;;;;-145.06;100.00;53898.47;10358013;28;20020;-84
2023/02/18 18:33:36;;;;;;;0.00;0.00;;;;;;;-145.06;100.00;53900.50;10345576;28;20014;-83
2023/02/18 18:38:37;;;;;;;0.00;0.00;;;;;;;-145.06;100.00;53941.00;10350104;28;20352;-83
2023/02/18 18:43:39;;;;;;;0.00;0.00;;;;;;;-145.06;100.00;53890.38;10358946;28;20647;-84
2023/02/18 18:48:39;;;;;;;0.00;0.00;;;;;;;-145.06;100.00;53930.88;10341608;28;20360;-83
2023/02/18 18:53:39;;;;;;;0.00;0.00;;;;;;;-145.06;100.00;53864.03;10365117;28;20105;-83
2023/02/18 18:58:40;;;;;;;0.00;0.00;;;;;;;-145.06;100.00;53904.53;10363966;28;20719;-83
2023/02/18 19:03:41;;;;;;;0.00;0.00;;;;;;;-145.06;100.00;53878.22;10348312;28;20038;-84
2023/02/18 19:08:41;;;;;;;0.00;0.00;;;;;;;-145.06;100.00;53930.88;10355341;28;20473;-83
2023/02/18 19:13:42;;;;;;;0.00;0.00;;;;;;;-145.06;100.00;53908.59;10352434;28;20014;-84
2023/02/18 19:18:42;;;;;;;0.00;0.00;;;;;;;-145.06;100.00;53898.47;10360444;28;20659;-84
2023/02/18 19:23:43;;;;;;;0.00;0.00;;;;;;;-145.06;100.00;53888.34;10356003;28;20025;-84
2023/02/18 19:28:44;;;;;;;0.00;0.00;;;;;;;-145.06;100.00;53906.56;10363170;28;20568;-84
2023/02/18 19:33:46;;;;;;;0.00;0.00;;;;;;;-145.06;100.00;53908.59;10356135;28;20432;-84
2023/02/18 19:38:46;;;;;;;0.00;0.00;;;;;;;-145.06;100.00;53922.75;10351738;28;20397;-84
2023/02/18 19:43:46;;;;;;;0.00;0.00;;;;;;;-145.06;100.00;53890.38;10353382;28;20025;-83
2023/02/18 19:48:49;;;;;;;0.00;0.00;;;;;;;-145.06;100.00;53900.50;10355022;28;20038;-83
2023/02/18 19:53:49;;;;;;;0.00;0.00;;;;;;;-145.06;100.00;53888.34;10369833;28;20017;-84
2023/02/18 19:58:49;;;;;;;0.00;0.00;;;;;;;-145.06;100.00;53930.88;10355761;28;20019;-83
2023/02/18 20:03:50;;;;;;;0.00;0.00;;;;;;;-145.06;100.00;53870.09;10374406;28;20401;-84
2023/02/18 20:08:50;;;;;;;0.00;0.00;;;;;;;-145.06;100.00;53900.50;10361215;28;20265;-84
2023/02/18 20:13:50;;;;;;;0.00;0.00;;;;;;;-145.06;100.00;53886.31;10354305;28;20336;-84
2023/02/18 20:18:51;;;;;;;0.00;0.00;;;;;;;-145.06;100.00;53900.50;10359683;28;20040;-84
2023/02/18 20:23:54;;;;;;;0.00;0.00;;;;;;;-145.06;100.00;53941.00;10360514;28;20470;-84
2023/02/18 20:28:55;;;;;;;0.00;0.00;;;;;;;-145.06;100.00;53886.31;10356423;28;20022;-84
2023/02/18 20:33:56;;;;;;;0.00;0.00;;;;;;;-145.06;100.00;53910.63;10362982;28;20014;-84
2023/02/18 20:38:57;;;;;;;0.00;0.00;;;;;;;-145.06;100.00;53932.88;10368387;28;20033;-84
2023/02/18 20:43:59;;;;;;;0.00;0.00;;;;;;;-145.06;100.00;53888.34;10354257;28;20018;-84
2023/02/18 20:48:59;;;;;;;0.00;0.00;;;;;;;-145.06;100.00;53912.63;10366028;28;20547;-85
2023/02/18 20:54:03;;;;;;;0.00;0.00;;;;;;;-145.06;100.00;53914.66;10352416;28;20074;-84
2023/02/18 20:59:04;;;;;;;0.00;0.00;;;;;;;-145.06;100.00;53900.50;10369878;28;20034;-84
2023/02/18 21:04:05;;;;;;;0.00;0.00;;;;;;;-145.06;100.00;53928.84;10367019;28;20026;-84
2023/02/18 21:09:05;;;;;;;0.00;0.00;;;;;;;-145.06;100.00;53912.63;10381543;28;20504;-84
2023/02/18 21:14:06;;;;;;;0.00;0.00;;;;;;;-145.06;100.00;53920.75;10354422;28;20629;-85
2023/02/18 21:19:10;;;;;;;0.00;0.00;;;;;;;-145.06;100.00;53957.19;10421632;22;20049;-80
2023/02/18 21:24:11;;;;;;;0.00;0.00;;;;;;;-145.06;100.00;53924.78;10425856;28;20790;-82
2023/02/18 21:29:12;;;;;;;0.00;0.00;;;;;;;-145.06;100.00;53932.88;10410849;28;20026;-79
2023/02/18 21:34:14;;;;;;;0.00;0.00;;;;;;;-145.06;100.00;53900.50;10415067;28;20057;-81
2023/02/18 21:39:14;;;;;;;0.00;0.00;;;;;;;-145.06;100.00;53904.53;10413805;28;20022;-79
2023/02/18 21:44:15;;;;;;;0.00;0.00;;;;;;;-145.06;100.00;53912.63;10431175;28;20025;-82
2023/02/18 21:49:16;;;;;;;0.00;0.00;;;;;;;-145.06;100.00;53914.66;10424673;28;20021;-80
2023/02/18 21:54:18;;;;;;;0.00;0.00;;;;;;;-145.06;100.00;53894.41;10431357;28;20020;-79
2023/02/18 21:59:20;;;;;;;0.00;0.00;;;;;;;-145.06;100.00;53906.56;10414556;28;20017;-81
2023/02/18 22:04:21;;;;;;;0.00;0.00;;;;;;;-145.06;100.00;53910.63;10413774;28;20025;-79
2023/02/18 22:09:22;;;;;;;0.00;0.00;;;;;;;-145.06;100.00;53902.50;10416678;28;20061;-78
2023/02/18 22:14:22;;;;;;;0.00;0.00;;;;;;;-145.06;100.00;53943.00;10407485;28;20036;-81
2023/02/18 22:19:22;;;;;;;0.10;0.10;;;;;;;-145.06;100.00;53902.50;10401673;28;20060;-80
2023/02/18 22:24:23;;;;;;;0.00;0.00;;;;;;;-145.06;100.00;53892.38;10387487;28;20276;-80
2023/02/18 22:29:23;;;;;;;0.00;0.00;;;;;;;-145.06;100.00;53936.94;10397593;28;20484;-81
2023/02/18 22:34:24;;;;;;;0.00;0.00;;;;;;;-145.06;100.00;53932.88;10398471;28;20476;-81
2023/02/18 22:39:25;;;;;;;0.03;0.03;;;;;;;-145.06;100.00;53916.69;10388819;28;20271;-82
2023/02/18 22:44:26;;;;;;;0.00;0.00;;;;;;;-145.06;100.00;53896.44;10416572;28;20014;-79
2023/02/18 22:49:26;;;;;;;0.00;0.00;;;;;;;-145.06;100.00;53941.00;10398631;28;20029;-81
2023/02/18 22:54:26;;;;;;;0.00;0.00;;;;;;;-145.06;100.00;53898.47;10403264;28;20020;-81